sensor_id;sensor_type;location;lat;lon;timestamp;temperature;humidity
3051;DHT22;1535;51.098;6.414;2022-09-13T00:02:22;17.10;99.90
3051;DHT22;1535;51.098;6.414;2022-09-13T00:04:48;17.10;99.90
3051;DHT22;1535;51.098;6.414;2022-09-13T00:07:15;17.00;99.90
3051;DHT22;1535;51.098;6.414;2022-09-13T00:09:44;17.00;99.90
3051;DHT22;1535;51.098;6.414;2022-09-13T00:12:11;17.00;99.90
3051;DHT22;1535;51.098;6.414;2022-09-13T00:14:38;17.00;99.90
3051;DHT22;1535;51.098;6.414;2022-09-13T00:17:05;17.10;99.90
3051;DHT22;1535;51.098;6.414;2022-09-13T00:19:32;17.20;99.90
3051;DHT22;1535;51.098;6.414;2022-09-13T00:22:01;17.20;99.90
3051;DHT22;1535;51.098;6.414;2022-09-13T00:24:28;17.30;99.90
3051;DHT22;1535;51.098;6.414;2022-09-13T00:26:56;17.40;99.90
3051;DHT22;1535;51.098;6.414;2022-09-13T00:29:23;17.40;99.90
3051;DHT22;1535;51.098;6.414;2022-09-13T00:31:50;17.40;99.90
3051;DHT22;1535;51.098;6.414;2022-09-13T00:34:16;17.50;99.90
3051;DHT22;1535;51.098;6.414;2022-09-13T00:36:43;17.50;99.90
3051;DHT22;1535;51.098;6.414;2022-09-13T00:39:11;17.50;99.90
3051;DHT22;1535;51.098;6.414;2022-09-13T00:41:39;17.60;99.90
3051;DHT22;1535;51.098;6.414;2022-09-13T00:47:08;17.60;99.90
3051;DHT22;1535;51.098;6.414;2022-09-13T00:49:39;17.50;99.90
3051;DHT22;1535;51.098;6.414;2022-09-13T00:52:10;17.50;99.90
3051;DHT22;1535;51.098;6.414;2022-09-13T00:54:41;17.50;99.90
3051;DHT22;1535;51.098;6.414;2022-09-13T00:57:10;17.40;99.90
3051;DHT22;1535;51.098;6.414;2022-09-13T00:59:41;17.50;99.90
3051;DHT22;1535;51.098;6.414;2022-09-13T01:02:11;17.50;99.90
3051;DHT22;1535;51.098;6.414;2022-09-13T01:04:38;17.60;99.90
3051;DHT22;1535;51.098;6.414;2022-09-13T01:07:08;17.50;99.90
3051;DHT22;1535;51.098;6.414;2022-09-13T01:09:37;17.50;99.90
3051;DHT22;1535;51.098;6.414;2022-09-13T01:12:08;17.60;99.90
3051;DHT22;1535;51.098;6.414;2022-09-13T01:14:37;17.70;99.90
3051;DHT22;1535;51.098;6.414;2022-09-13T01:17:05;17.80;99.90
3051;DHT22;1535;51.098;6.414;2022-09-13T01:19:34;17.90;99.90
3051;DHT22;1535;51.098;6.414;2022-09-13T01:22:29;17.90;99.90
3051;DHT22;1535;51.098;6.414;2022-09-13T01:25:18;17.90;99.90
3051;DHT22;1535;51.098;6.414;2022-09-13T01:28:09;17.90;99.90
3051;DHT22;1535;51.098;6.414;2022-09-13T01:30:43;17.90;99.90
3051;DHT22;1535;51.098;6.414;2022-09-13T01:33:25;17.90;99.90
3051;DHT22;1535;51.098;6.414;2022-09-13T01:36:17;17.90;99.90
3051;DHT22;1535;51.098;6.414;2022-09-13T01:38:54;17.90;99.90
3051;DHT22;1535;51.098;6.414;2022-09-13T01:41:43;18.00;99.90
3051;DHT22;1535;51.098;6.414;2022-09-13T01:44:22;18.00;99.90
3051;DHT22;1535;51.098;6.414;2022-09-13T01:46:59;17.90;99.90
3051;DHT22;1535;51.098;6.414;2022-09-13T01:49:32;17.90;99.90
3051;DHT22;1535;51.098;6.414;2022-09-13T01:52:04;18.00;99.90
3051;DHT22;1535;51.098;6.414;2022-09-13T01:54:38;18.20;99.90
3051;DHT22;1535;51.098;6.414;2022-09-13T01:57:12;18.20;99.90
3051;DHT22;1535;51.098;6.414;2022-09-13T01:59:47;18.30;99.90
3051;DHT22;1535;51.098;6.414;2022-09-13T02:02:20;18.40;99.90
3051;DHT22;1535;51.098;6.414;2022-09-13T02:04:51;18.50;99.90
3051;DHT22;1535;51.098;6.414;2022-09-13T02:07:22;18.60;99.90
3051;DHT22;1535;51.098;6.414;2022-09-13T02:09:57;18.60;99.90
3051;DHT22;1535;51.098;6.414;2022-09-13T02:12:28;18.70;99.90
3051;DHT22;1535;51.098;6.414;2022-09-13T02:15:00;18.80;99.90
3051;DHT22;1535;51.098;6.414;2022-09-13T02:17:35;18.90;99.90
3051;DHT22;1535;51.098;6.414;2022-09-13T02:20:06;19.00;99.90
3051;DHT22;1535;51.098;6.414;2022-09-13T02:22:37;19.10;99.90
3051;DHT22;1535;51.098;6.414;2022-09-13T02:25:09;19.10;99.90
3051;DHT22;1535;51.098;6.414;2022-09-13T02:27:40;19.10;99.90
3051;DHT22;1535;51.098;6.414;2022-09-13T02:30:10;19.10;99.90
3051;DHT22;1535;51.098;6.414;2022-09-13T02:32:41;19.10;99.90
3051;DHT22;1535;51.098;6.414;2022-09-13T02:35:15;19.10;99.90
3051;DHT22;1535;51.098;6.414;2022-09-13T02:37:47;19.10;99.90
3051;DHT22;1535;51.098;6.414;2022-09-13T02:40:18;19.10;99.90
3051;DHT22;1535;51.098;6.414;2022-09-13T02:42:51;19.10;99.90
3051;DHT22;1535;51.098;6.414;2022-09-13T02:45:21;19.10;99.90
3051;DHT22;1535;51.098;6.414;2022-09-13T02:47:56;19.10;99.90
3051;DHT22;1535;51.098;6.414;2022-09-13T02:50:34;19.10;99.90
3051;DHT22;1535;51.098;6.414;2022-09-13T02:53:11;19.20;99.90
3051;DHT22;1535;51.098;6.414;2022-09-13T02:55:44;19.20;99.90
3051;DHT22;1535;51.098;6.414;2022-09-13T02:58:20;19.20;99.90
3051;DHT22;1535;51.098;6.414;2022-09-13T03:00:51;19.20;99.90
3051;DHT22;1535;51.098;6.414;2022-09-13T03:03:20;19.10;99.90
3051;DHT22;1535;51.098;6.414;2022-09-13T03:05:48;19.10;99.90
3051;DHT22;1535;51.098;6.414;2022-09-13T03:08:15;19.10;99.90
3051;DHT22;1535;51.098;6.414;2022-09-13T03:10:53;19.00;99.90
3051;DHT22;1535;51.098;6.414;2022-09-13T03:13:48;19.00;99.90
3051;DHT22;1535;51.098;6.414;2022-09-13T03:16:32;19.00;99.90
3051;DHT22;1535;51.098;6.414;2022-09-13T03:19:17;18.90;99.90
3051;DHT22;1535;51.098;6.414;2022-09-13T03:22:03;18.80;99.90
3051;DHT22;1535;51.098;6.414;2022-09-13T03:24:39;18.80;99.90
3051;DHT22;1535;51.098;6.414;2022-09-13T03:27:18;18.60;99.90
3051;DHT22;1535;51.098;6.414;2022-09-13T03:29:54;18.60;99.90
3051;DHT22;1535;51.098;6.414;2022-09-13T03:32:29;18.50;99.90
3051;DHT22;1535;51.098;6.414;2022-09-13T03:35:04;18.50;99.90
3051;DHT22;1535;51.098;6.414;2022-09-13T03:37:35;18.50;99.90
3051;DHT22;1535;51.098;6.414;2022-09-13T03:40:11;18.50;99.90
3051;DHT22;1535;51.098;6.414;2022-09-13T03:42:41;18.50;99.90
3051;DHT22;1535;51.098;6.414;2022-09-13T03:45:10;18.50;99.90
3051;DHT22;1535;51.098;6.414;2022-09-13T03:47:40;18.50;99.90
3051;DHT22;1535;51.098;6.414;2022-09-13T03:50:15;18.50;99.90
3051;DHT22;1535;51.098;6.414;2022-09-13T03:52:45;18.50;99.90
3051;DHT22;1535;51.098;6.414;2022-09-13T03:55:12;18.50;99.90
3051;DHT22;1535;51.098;6.414;2022-09-13T03:57:39;18.50;99.90
3051;DHT22;1535;51.098;6.414;2022-09-13T04:00:07;18.60;99.90
3051;DHT22;1535;51.098;6.414;2022-09-13T04:02:34;18.40;99.90
3051;DHT22;1535;51.098;6.414;2022-09-13T04:05:01;18.30;99.90
3051;DHT22;1535;51.098;6.414;2022-09-13T04:07:30;18.30;99.90
3051;DHT22;1535;51.098;6.414;2022-09-13T04:09:57;18.40;99.90
3051;DHT22;1535;51.098;6.414;2022-09-13T04:12:24;18.40;99.90
3051;DHT22;1535;51.098;6.414;2022-09-13T04:14:51;18.40;99.90
3051;DHT22;1535;51.098;6.414;2022-09-13T04:17:18;18.40;99.90
3051;DHT22;1535;51.098;6.414;2022-09-13T04:19:46;18.40;99.90
3051;DHT22;1535;51.098;6.414;2022-09-13T04:22:14;18.40;99.90
3051;DHT22;1535;51.098;6.414;2022-09-13T04:24:42;18.30;99.90
3051;DHT22;1535;51.098;6.414;2022-09-13T04:27:09;18.30;99.90
3051;DHT22;1535;51.098;6.414;2022-09-13T04:29:37;18.30;99.90
3051;DHT22;1535;51.098;6.414;2022-09-13T04:32:04;18.30;99.90
3051;DHT22;1535;51.098;6.414;2022-09-13T04:34:31;18.30;99.90
3051;DHT22;1535;51.098;6.414;2022-09-13T04:36:59;18.40;99.90
3051;DHT22;1535;51.098;6.414;2022-09-13T04:39:26;18.40;99.90
3051;DHT22;1535;51.098;6.414;2022-09-13T04:41:54;18.40;99.90
3051;DHT22;1535;51.098;6.414;2022-09-13T04:44:21;18.30;99.90
3051;DHT22;1535;51.098;6.414;2022-09-13T04:46:49;18.30;99.90
3051;DHT22;1535;51.098;6.414;2022-09-13T04:49:18;18.30;99.90
3051;DHT22;1535;51.098;6.414;2022-09-13T04:51:47;18.30;99.90
3051;DHT22;1535;51.098;6.414;2022-09-13T04:54:15;18.30;99.90
3051;DHT22;1535;51.098;6.414;2022-09-13T04:56:43;18.30;99.90
3051;DHT22;1535;51.098;6.414;2022-09-13T04:59:12;18.30;99.90
3051;DHT22;1535;51.098;6.414;2022-09-13T05:01:39;18.40;99.90
3051;DHT22;1535;51.098;6.414;2022-09-13T05:04:06;18.40;99.90
3051;DHT22;1535;51.098;6.414;2022-09-13T05:06:34;18.30;99.90
3051;DHT22;1535;51.098;6.414;2022-09-13T05:09:02;18.30;99.90
3051;DHT22;1535;51.098;6.414;2022-09-13T05:11:30;18.30;99.90
3051;DHT22;1535;51.098;6.414;2022-09-13T05:13:58;18.20;99.90
3051;DHT22;1535;51.098;6.414;2022-09-13T05:16:28;18.20;99.90
3051;DHT22;1535;51.098;6.414;2022-09-13T05:18:56;18.10;99.90
3051;DHT22;1535;51.098;6.414;2022-09-13T05:21:24;18.10;99.90
3051;DHT22;1535;51.098;6.414;2022-09-13T05:23:52;18.10;99.90
3051;DHT22;1535;51.098;6.414;2022-09-13T05:26:20;18.10;99.90
3051;DHT22;1535;51.098;6.414;2022-09-13T05:28:47;18.20;99.90
3051;DHT22;1535;51.098;6.414;2022-09-13T05:31:16;18.30;99.90
3051;DHT22;1535;51.098;6.414;2022-09-13T05:33:47;18.30;99.90
3051;DHT22;1535;51.098;6.414;2022-09-13T05:36:17;18.30;99.90
3051;DHT22;1535;51.098;6.414;2022-09-13T05:38:44;18.40;99.90
3051;DHT22;1535;51.098;6.414;2022-09-13T05:41:11;18.40;99.90
3051;DHT22;1535;51.098;6.414;2022-09-13T05:43:38;18.50;99.90
3051;DHT22;1535;51.098;6.414;2022-09-13T05:46:07;18.50;99.90
3051;DHT22;1535;51.098;6.414;2022-09-13T05:48:35;18.50;99.90
3051;DHT22;1535;51.098;6.414;2022-09-13T05:51:07;18.50;99.90
3051;DHT22;1535;51.098;6.414;2022-09-13T05:53:35;18.50;99.90
3051;DHT22;1535;51.098;6.414;2022-09-13T05:56:03;18.50;99.90
3051;DHT22;1535;51.098;6.414;2022-09-13T05:58:30;18.50;99.90
3051;DHT22;1535;51.098;6.414;2022-09-13T06:00:57;18.40;99.90
3051;DHT22;1535;51.098;6.414;2022-09-13T06:03:23;18.40;99.90
3051;DHT22;1535;51.098;6.414;2022-09-13T06:05:54;18.40;99.90
3051;DHT22;1535;51.098;6.414;2022-09-13T06:08:22;18.30;99.90
3051;DHT22;1535;51.098;6.414;2022-09-13T06:10:56;18.30;99.90
3051;DHT22;1535;51.098;6.414;2022-09-13T06:13:24;18.40;99.90
3051;DHT22;1535;51.098;6.414;2022-09-13T06:15:53;18.60;99.90
3051;DHT22;1535;51.098;6.414;2022-09-13T06:18:22;18.80;99.90
3051;DHT22;1535;51.098;6.414;2022-09-13T06:20:56;18.80;99.90
3051;DHT22;1535;51.098;6.414;2022-09-13T06:23:25;18.80;99.90
3051;DHT22;1535;51.098;6.414;2022-09-13T06:25:59;19.00;99.90
3051;DHT22;1535;51.098;6.414;2022-09-13T06:28:26;19.10;99.90
3051;DHT22;1535;51.098;6.414;2022-09-13T06:30:59;19.10;99.90
3051;DHT22;1535;51.098;6.414;2022-09-13T06:33:26;19.30;99.90
3051;DHT22;1535;51.098;6.414;2022-09-13T06:35:53;19.30;99.90
3051;DHT22;1535;51.098;6.414;2022-09-13T06:38:21;19.40;99.90
3051;DHT22;1535;51.098;6.414;2022-09-13T06:40:58;19.40;99.90
3051;DHT22;1535;51.098;6.414;2022-09-13T06:43:25;19.50;99.90
3051;DHT22;1535;51.098;6.414;2022-09-13T06:45:52;19.40;99.90
3051;DHT22;1535;51.098;6.414;2022-09-13T06:48:19;19.60;99.90
3051;DHT22;1535;51.098;6.414;2022-09-13T06:50:46;19.80;99.90
3051;DHT22;1535;51.098;6.414;2022-09-13T06:53:13;19.80;99.90
3051;DHT22;1535;51.098;6.414;2022-09-13T06:55:39;19.90;99.90
3051;DHT22;1535;51.098;6.414;2022-09-13T06:58:07;19.90;99.90
3051;DHT22;1535;51.098;6.414;2022-09-13T07:00:35;20.00;99.90
3051;DHT22;1535;51.098;6.414;2022-09-13T07:03:02;20.20;99.90
3051;DHT22;1535;51.098;6.414;2022-09-13T07:05:29;20.30;99.90
3051;DHT22;1535;51.098;6.414;2022-09-13T07:07:57;20.30;99.90
3051;DHT22;1535;51.098;6.414;2022-09-13T07:10:24;20.50;99.90
3051;DHT22;1535;51.098;6.414;2022-09-13T07:12:51;20.60;99.90
3051;DHT22;1535;51.098;6.414;2022-09-13T07:15:19;20.70;99.90
3051;DHT22;1535;51.098;6.414;2022-09-13T07:17:45;20.80;99.90
3051;DHT22;1535;51.098;6.414;2022-09-13T07:20:13;21.00;99.90
3051;DHT22;1535;51.098;6.414;2022-09-13T07:22:40;21.10;99.90
3051;DHT22;1535;51.098;6.414;2022-09-13T07:25:07;21.30;99.90
3051;DHT22;1535;51.098;6.414;2022-09-13T07:27:37;21.50;99.90
3051;DHT22;1535;51.098;6.414;2022-09-13T07:30:06;21.60;99.90
3051;DHT22;1535;51.098;6.414;2022-09-13T07:32:35;21.70;99.90
3051;DHT22;1535;51.098;6.414;2022-09-13T07:35:02;21.80;99.90
3051;DHT22;1535;51.098;6.414;2022-09-13T07:37:31;21.80;99.90
3051;DHT22;1535;51.098;6.414;2022-09-13T07:39:59;21.90;99.90
3051;DHT22;1535;51.098;6.414;2022-09-13T07:42:26;22.00;99.90
3051;DHT22;1535;51.098;6.414;2022-09-13T07:44:53;22.10;99.90
3051;DHT22;1535;51.098;6.414;2022-09-13T07:47:20;22.00;99.90
3051;DHT22;1535;51.098;6.414;2022-09-13T07:49:48;22.20;99.90
3051;DHT22;1535;51.098;6.414;2022-09-13T07:52:16;22.30;99.90
3051;DHT22;1535;51.098;6.414;2022-09-13T07:54:44;22.20;99.90
3051;DHT22;1535;51.098;6.414;2022-09-13T07:57:12;22.30;99.90
3051;DHT22;1535;51.098;6.414;2022-09-13T07:59:39;22.30;99.90
3051;DHT22;1535;51.098;6.414;2022-09-13T08:02:08;22.40;99.90
3051;DHT22;1535;51.098;6.414;2022-09-13T08:04:36;22.70;99.90
3051;DHT22;1535;51.098;6.414;2022-09-13T08:07:05;22.70;99.90
3051;DHT22;1535;51.098;6.414;2022-09-13T08:09:32;22.70;99.90
3051;DHT22;1535;51.098;6.414;2022-09-13T08:11:59;23.00;99.90
3051;DHT22;1535;51.098;6.414;2022-09-13T08:14:26;23.20;99.90
3051;DHT22;1535;51.098;6.414;2022-09-13T08:16:54;23.40;99.90
3051;DHT22;1535;51.098;6.414;2022-09-13T08:19:22;23.60;99.90
3051;DHT22;1535;51.098;6.414;2022-09-13T08:21:50;23.60;99.90
3051;DHT22;1535;51.098;6.414;2022-09-13T08:24:20;23.60;99.90
3051;DHT22;1535;51.098;6.414;2022-09-13T08:26:47;23.70;99.90
3051;DHT22;1535;51.098;6.414;2022-09-13T08:29:15;23.90;99.90
3051;DHT22;1535;51.098;6.414;2022-09-13T08:31:42;23.90;99.90
3051;DHT22;1535;51.098;6.414;2022-09-13T08:34:10;24.10;99.90
3051;DHT22;1535;51.098;6.414;2022-09-13T08:36:39;24.00;99.90
3051;DHT22;1535;51.098;6.414;2022-09-13T08:39:07;23.80;99.90
3051;DHT22;1535;51.098;6.414;2022-09-13T08:42:02;23.70;99.90
3051;DHT22;1535;51.098;6.414;2022-09-13T08:44:31;23.50;99.90
3051;DHT22;1535;51.098;6.414;2022-09-13T08:47:08;23.50;99.90
3051;DHT22;1535;51.098;6.414;2022-09-13T08:49:42;23.60;99.90
3051;DHT22;1535;51.098;6.414;2022-09-13T08:52:18;23.40;99.90
3051;DHT22;1535;51.098;6.414;2022-09-13T08:54:46;23.60;99.90
3051;DHT22;1535;51.098;6.414;2022-09-13T08:57:18;23.60;99.90
3051;DHT22;1535;51.098;6.414;2022-09-13T08:59:56;23.60;99.90
3051;DHT22;1535;51.098;6.414;2022-09-13T09:02:40;23.50;99.90
3051;DHT22;1535;51.098;6.414;2022-09-13T09:05:15;23.50;99.90
3051;DHT22;1535;51.098;6.414;2022-09-13T09:07:45;23.50;99.90
3051;DHT22;1535;51.098;6.414;2022-09-13T09:10:16;23.40;99.90
3051;DHT22;1535;51.098;6.414;2022-09-13T09:12:46;23.50;99.90
3051;DHT22;1535;51.098;6.414;2022-09-13T09:15:17;23.70;99.90
3051;DHT22;1535;51.098;6.414;2022-09-13T09:17:50;23.80;99.90
3051;DHT22;1535;51.098;6.414;2022-09-13T09:20:25;24.00;99.90
3051;DHT22;1535;51.098;6.414;2022-09-13T09:22:53;24.30;99.90
3051;DHT22;1535;51.098;6.414;2022-09-13T09:25:22;24.40;99.90
3051;DHT22;1535;51.098;6.414;2022-09-13T09:27:53;24.90;99.90
3051;DHT22;1535;51.098;6.414;2022-09-13T09:30:22;25.70;99.90
3051;DHT22;1535;51.098;6.414;2022-09-13T09:33:15;26.10;99.90
3051;DHT22;1535;51.098;6.414;2022-09-13T09:35:50;25.70;99.90
3051;DHT22;1535;51.098;6.414;2022-09-13T09:38:31;26.00;99.90
3051;DHT22;1535;51.098;6.414;2022-09-13T09:41:04;26.40;99.90
3051;DHT22;1535;51.098;6.414;2022-09-13T09:43:38;26.70;99.90
3051;DHT22;1535;51.098;6.414;2022-09-13T09:46:08;27.10;99.90
3051;DHT22;1535;51.098;6.414;2022-09-13T09:48:40;27.40;99.90
3051;DHT22;1535;51.098;6.414;2022-09-13T09:51:10;27.80;99.90
3051;DHT22;1535;51.098;6.414;2022-09-13T09:53:43;27.80;99.90
3051;DHT22;1535;51.098;6.414;2022-09-13T09:56:21;27.90;99.90
3051;DHT22;1535;51.098;6.414;2022-09-13T09:58:51;28.20;99.90
3051;DHT22;1535;51.098;6.414;2022-09-13T10:01:22;27.80;99.90
3051;DHT22;1535;51.098;6.414;2022-09-13T10:03:52;28.10;99.90
3051;DHT22;1535;51.098;6.414;2022-09-13T10:06:21;28.80;99.90
3051;DHT22;1535;51.098;6.414;2022-09-13T10:08:55;28.70;99.90
3051;DHT22;1535;51.098;6.414;2022-09-13T10:11:23;28.90;99.90
3051;DHT22;1535;51.098;6.414;2022-09-13T10:14:00;29.30;99.50
3051;DHT22;1535;51.098;6.414;2022-09-13T10:16:29;29.80;99.10
3051;DHT22;1535;51.098;6.414;2022-09-13T10:19:21;30.70;97.00
3051;DHT22;1535;51.098;6.414;2022-09-13T10:22:00;30.00;96.90
3051;DHT22;1535;51.098;6.414;2022-09-13T10:24:27;29.30;97.90
3051;DHT22;1535;51.098;6.414;2022-09-13T10:26:55;29.30;97.00
3051;DHT22;1535;51.098;6.414;2022-09-13T10:29:25;28.60;98.50
3051;DHT22;1535;51.098;6.414;2022-09-13T10:31:53;28.00;99.40
3051;DHT22;1535;51.098;6.414;2022-09-13T10:34:24;28.30;98.90
3051;DHT22;1535;51.098;6.414;2022-09-13T10:36:55;28.50;98.60
3051;DHT22;1535;51.098;6.414;2022-09-13T10:39:23;28.90;97.90
3051;DHT22;1535;51.098;6.414;2022-09-13T10:41:52;28.90;97.60
3051;DHT22;1535;51.098;6.414;2022-09-13T10:44:31;28.90;97.80
3051;DHT22;1535;51.098;6.414;2022-09-13T10:47:01;28.90;97.50
3051;DHT22;1535;51.098;6.414;2022-09-13T10:49:43;28.50;97.80
3051;DHT22;1535;51.098;6.414;2022-09-13T10:52:27;28.50;98.40
3051;DHT22;1535;51.098;6.414;2022-09-13T10:54:57;28.50;97.40
3051;DHT22;1535;51.098;6.414;2022-09-13T10:57:42;28.80;97.40
3051;DHT22;1535;51.098;6.414;2022-09-13T11:00:12;29.10;97.70
3051;DHT22;1535;51.098;6.414;2022-09-13T11:02:54;29.30;97.90
3051;DHT22;1535;51.098;6.414;2022-09-13T11:05:28;29.70;97.00
3051;DHT22;1535;51.098;6.414;2022-09-13T11:08:12;29.50;97.50
3051;DHT22;1535;51.098;6.414;2022-09-13T11:10:49;29.70;96.10
3051;DHT22;1535;51.098;6.414;2022-09-13T11:13:26;29.90;94.80
3051;DHT22;1535;51.098;6.414;2022-09-13T11:15:59;30.30;94.00
3051;DHT22;1535;51.098;6.414;2022-09-13T11:18:41;30.40;94.10
3051;DHT22;1535;51.098;6.414;2022-09-13T11:21:25;29.90;93.90
3051;DHT22;1535;51.098;6.414;2022-09-13T11:24:16;30.00;93.50
3051;DHT22;1535;51.098;6.414;2022-09-13T11:26:58;30.30;94.50
3051;DHT22;1535;51.098;6.414;2022-09-13T11:29:47;30.70;92.60
3051;DHT22;1535;51.098;6.414;2022-09-13T11:32:28;30.40;93.00
3051;DHT22;1535;51.098;6.414;2022-09-13T11:35:20;30.80;93.10
3051;DHT22;1535;51.098;6.414;2022-09-13T11:37:58;31.10;92.90
3051;DHT22;1535;51.098;6.414;2022-09-13T11:40:38;31.60;90.20
3051;DHT22;1535;51.098;6.414;2022-09-13T11:43:17;32.00;90.80
3051;DHT22;1535;51.098;6.414;2022-09-13T11:45:53;32.50;88.50
3051;DHT22;1535;51.098;6.414;2022-09-13T11:48:44;33.20;86.50
3051;DHT22;1535;51.098;6.414;2022-09-13T11:51:25;33.70;83.10
3051;DHT22;1535;51.098;6.414;2022-09-13T11:54:05;33.50;79.10
3051;DHT22;1535;51.098;6.414;2022-09-13T11:56:35;33.20;78.80
3051;DHT22;1535;51.098;6.414;2022-09-13T11:59:14;33.20;77.50
3051;DHT22;1535;51.098;6.414;2022-09-13T12:01:46;34.40;75.50
3051;DHT22;1535;51.098;6.414;2022-09-13T12:04:21;34.70;75.90
3051;DHT22;1535;51.098;6.414;2022-09-13T12:06:53;35.40;70.40
3051;DHT22;1535;51.098;6.414;2022-09-13T12:09:24;35.80;68.00
3051;DHT22;1535;51.098;6.414;2022-09-13T12:11:57;34.70;68.10
3051;DHT22;1535;51.098;6.414;2022-09-13T12:14:31;34.30;69.20
3051;DHT22;1535;51.098;6.414;2022-09-13T12:17:06;33.80;67.20
3051;DHT22;1535;51.098;6.414;2022-09-13T12:19:43;33.60;67.60
3051;DHT22;1535;51.098;6.414;2022-09-13T12:22:12;33.50;69.60
3051;DHT22;1535;51.098;6.414;2022-09-13T12:24:42;33.70;69.50
3051;DHT22;1535;51.098;6.414;2022-09-13T12:27:12;33.70;69.80
3051;DHT22;1535;51.098;6.414;2022-09-13T12:29:46;33.30;71.00
3051;DHT22;1535;51.098;6.414;2022-09-13T12:32:14;32.40;69.70
3051;DHT22;1535;51.098;6.414;2022-09-13T12:34:47;32.50;69.40
3051;DHT22;1535;51.098;6.414;2022-09-13T12:37:26;32.80;69.60
3051;DHT22;1535;51.098;6.414;2022-09-13T12:40:13;32.70;68.40
3051;DHT22;1535;51.098;6.414;2022-09-13T12:43:15;33.70;70.00
3051;DHT22;1535;51.098;6.414;2022-09-13T12:46:08;34.00;66.70
3051;DHT22;1535;51.098;6.414;2022-09-13T12:51:59;33.90;64.30
3051;DHT22;1535;51.098;6.414;2022-09-13T12:54:48;33.60;64.60
3051;DHT22;1535;51.098;6.414;2022-09-13T12:57:31;33.50;64.60
3051;DHT22;1535;51.098;6.414;2022-09-13T13:00:10;33.20;64.90
3051;DHT22;1535;51.098;6.414;2022-09-13T13:02:40;33.10;64.80
3051;DHT22;1535;51.098;6.414;2022-09-13T13:05:20;33.30;64.70
3051;DHT22;1535;51.098;6.414;2022-09-13T13:07:54;33.00;64.90
3051;DHT22;1535;51.098;6.414;2022-09-13T13:10:28;32.40;63.00
3051;DHT22;1535;51.098;6.414;2022-09-13T13:13:09;32.20;65.10
3051;DHT22;1535;51.098;6.414;2022-09-13T13:16:00;32.20;66.80
3051;DHT22;1535;51.098;6.414;2022-09-13T13:18:30;32.20;67.40
3051;DHT22;1535;51.098;6.414;2022-09-13T13:21:31;32.20;66.80
3051;DHT22;1535;51.098;6.414;2022-09-13T13:24:43;32.40;67.00
3051;DHT22;1535;51.098;6.414;2022-09-13T13:27:37;32.10;66.50
3051;DHT22;1535;51.098;6.414;2022-09-13T13:30:33;31.70;68.40
3051;DHT22;1535;51.098;6.414;2022-09-13T13:33:10;31.10;69.40
3051;DHT22;1535;51.098;6.414;2022-09-13T13:35:38;30.80;70.60
3051;DHT22;1535;51.098;6.414;2022-09-13T13:41:38;30.50;74.20
3051;DHT22;1535;51.098;6.414;2022-09-13T13:47:40;30.40;74.10
3051;DHT22;1535;51.098;6.414;2022-09-13T13:50:14;30.40;73.60
3051;DHT22;1535;51.098;6.414;2022-09-13T13:52:51;31.00;73.10
3051;DHT22;1535;51.098;6.414;2022-09-13T13:55:41;31.70;71.10
3051;DHT22;1535;51.098;6.414;2022-09-13T13:58:28;31.70;72.00
3051;DHT22;1535;51.098;6.414;2022-09-13T14:00:57;31.70;68.40
3051;DHT22;1535;51.098;6.414;2022-09-13T14:03:41;31.80;68.70
3051;DHT22;1535;51.098;6.414;2022-09-13T14:06:18;32.10;68.40
3051;DHT22;1535;51.098;6.414;2022-09-13T14:09:00;32.00;69.90
3051;DHT22;1535;51.098;6.414;2022-09-13T14:11:37;31.90;70.20
3051;DHT22;1535;51.098;6.414;2022-09-13T14:14:30;31.40;69.60
3051;DHT22;1535;51.098;6.414;2022-09-13T14:17:27;31.30;72.90
3051;DHT22;1535;51.098;6.414;2022-09-13T14:20:02;31.40;73.10
3051;DHT22;1535;51.098;6.414;2022-09-13T14:22:30;31.80;71.30
3051;DHT22;1535;51.098;6.414;2022-09-13T14:25:12;32.10;69.30
3051;DHT22;1535;51.098;6.414;2022-09-13T14:27:41;32.40;71.10
3051;DHT22;1535;51.098;6.414;2022-09-13T14:30:18;32.50;68.10
3051;DHT22;1535;51.098;6.414;2022-09-13T14:32:48;32.70;67.50
3051;DHT22;1535;51.098;6.414;2022-09-13T14:35:25;32.70;68.50
3051;DHT22;1535;51.098;6.414;2022-09-13T14:37:53;32.00;70.60
3051;DHT22;1535;51.098;6.414;2022-09-13T14:40:23;31.30;71.00
3051;DHT22;1535;51.098;6.414;2022-09-13T14:42:53;31.00;72.30
3051;DHT22;1535;51.098;6.414;2022-09-13T14:45:24;31.10;72.20
3051;DHT22;1535;51.098;6.414;2022-09-13T14:47:54;31.20;74.80
3051;DHT22;1535;51.098;6.414;2022-09-13T14:50:25;31.10;74.00
3051;DHT22;1535;51.098;6.414;2022-09-13T14:52:56;31.20;74.90
3051;DHT22;1535;51.098;6.414;2022-09-13T14:55:26;30.80;74.50
3051;DHT22;1535;51.098;6.414;2022-09-13T14:57:57;30.40;75.70
3051;DHT22;1535;51.098;6.414;2022-09-13T15:00:28;29.50;77.60
3051;DHT22;1535;51.098;6.414;2022-09-13T15:02:58;29.20;81.00
3051;DHT22;1535;51.098;6.414;2022-09-13T15:05:27;28.90;81.10
3051;DHT22;1535;51.098;6.414;2022-09-13T15:07:55;28.90;81.80
3051;DHT22;1535;51.098;6.414;2022-09-13T15:10:24;29.00;82.60
3051;DHT22;1535;51.098;6.414;2022-09-13T15:12:55;28.80;84.70
3051;DHT22;1535;51.098;6.414;2022-09-13T15:15:37;28.60;86.00
3051;DHT22;1535;51.098;6.414;2022-09-13T15:18:05;28.10;88.10
3051;DHT22;1535;51.098;6.414;2022-09-13T15:20:49;27.70;89.80
3051;DHT22;1535;51.098;6.414;2022-09-13T15:23:19;27.50;91.10
3051;DHT22;1535;51.098;6.414;2022-09-13T15:25:50;27.30;92.00
3051;DHT22;1535;51.098;6.414;2022-09-13T15:28:26;27.30;91.60
3051;DHT22;1535;51.098;6.414;2022-09-13T15:30:57;27.20;92.20
3051;DHT22;1535;51.098;6.414;2022-09-13T15:33:27;27.10;93.30
3051;DHT22;1535;51.098;6.414;2022-09-13T15:36:26;27.20;93.70
3051;DHT22;1535;51.098;6.414;2022-09-13T15:39:02;27.20;94.60
3051;DHT22;1535;51.098;6.414;2022-09-13T15:41:31;27.00;95.70
3051;DHT22;1535;51.098;6.414;2022-09-13T15:43:59;26.80;95.80
3051;DHT22;1535;51.098;6.414;2022-09-13T15:46:28;26.50;97.80
3051;DHT22;1535;51.098;6.414;2022-09-13T15:48:57;26.30;98.40
3051;DHT22;1535;51.098;6.414;2022-09-13T15:51:24;26.20;99.50
3051;DHT22;1535;51.098;6.414;2022-09-13T15:53:53;26.20;99.90
3051;DHT22;1535;51.098;6.414;2022-09-13T15:56:21;25.70;99.90
3051;DHT22;1535;51.098;6.414;2022-09-13T15:58:49;25.30;99.90
3051;DHT22;1535;51.098;6.414;2022-09-13T16:01:16;24.80;99.90
3051;DHT22;1535;51.098;6.414;2022-09-13T16:03:46;24.40;99.90
3051;DHT22;1535;51.098;6.414;2022-09-13T16:06:14;24.00;99.90
3051;DHT22;1535;51.098;6.414;2022-09-13T16:08:41;23.80;99.90
3051;DHT22;1535;51.098;6.414;2022-09-13T16:11:09;23.60;99.90
3051;DHT22;1535;51.098;6.414;2022-09-13T16:13:37;23.50;99.90
3051;DHT22;1535;51.098;6.414;2022-09-13T16:16:04;23.30;99.90
3051;DHT22;1535;51.098;6.414;2022-09-13T16:18:33;23.30;99.90
3051;DHT22;1535;51.098;6.414;2022-09-13T16:21:01;23.20;99.90
3051;DHT22;1535;51.098;6.414;2022-09-13T16:23:28;23.20;99.90
3051;DHT22;1535;51.098;6.414;2022-09-13T16:25:56;23.30;99.90
3051;DHT22;1535;51.098;6.414;2022-09-13T16:28:24;23.30;99.90
3051;DHT22;1535;51.098;6.414;2022-09-13T16:30:51;23.40;99.90
3051;DHT22;1535;51.098;6.414;2022-09-13T16:33:18;23.50;99.90
3051;DHT22;1535;51.098;6.414;2022-09-13T16:35:45;23.60;99.90
3051;DHT22;1535;51.098;6.414;2022-09-13T16:38:14;23.60;99.90
3051;DHT22;1535;51.098;6.414;2022-09-13T16:40:42;23.60;99.90
3051;DHT22;1535;51.098;6.414;2022-09-13T16:43:09;23.60;99.90
3051;DHT22;1535;51.098;6.414;2022-09-13T16:45:37;23.60;99.90
3051;DHT22;1535;51.098;6.414;2022-09-13T16:48:05;23.60;99.90
3051;DHT22;1535;51.098;6.414;2022-09-13T16:50:32;23.60;99.90